sensor_id;sensor_type;location;lat;lon;timestamp;temperature;humidity
71175;DHT22;58876;51.994;4.472;2023-05-07T00:00:22;16.73;79.27
71175;DHT22;58876;51.994;4.472;2023-05-07T00:02:48;16.71;79.18
71175;DHT22;58876;51.994;4.472;2023-05-07T00:05:13;16.68;78.97
71175;DHT22;58876;51.994;4.472;2023-05-07T00:07:39;16.62;79.10
71175;DHT22;58876;51.994;4.472;2023-05-07T00:10:05;16.58;79.03
71175;DHT22;58876;51.994;4.472;2023-05-07T00:12:32;16.55;79.13
71175;DHT22;58876;51.994;4.472;2023-05-07T00:15:02;16.58;78.99
71175;DHT22;58876;51.994;4.472;2023-05-07T00:17:28;16.58;78.85
71175;DHT22;58876;51.994;4.472;2023-05-07T00:19:54;16.55;78.89
71175;DHT22;58876;51.994;4.472;2023-05-07T00:22:20;16.55;78.94
71175;DHT22;58876;51.994;4.472;2023-05-07T00:24:46;16.53;78.50
71175;DHT22;58876;51.994;4.472;2023-05-07T00:27:11;16.53;78.77
71175;DHT22;58876;51.994;4.472;2023-05-07T00:29:37;16.55;78.57
71175;DHT22;58876;51.994;4.472;2023-05-07T00:32:02;16.55;78.52
71175;DHT22;58876;51.994;4.472;2023-05-07T00:34:28;16.59;78.51
71175;DHT22;58876;51.994;4.472;2023-05-07T00:36:53;16.55;78.59
71175;DHT22;58876;51.994;4.472;2023-05-07T00:39:19;16.59;78.24
71175;DHT22;58876;51.994;4.472;2023-05-07T00:41:44;16.58;78.32
71175;DHT22;58876;51.994;4.472;2023-05-07T00:44:11;16.52;78.15
71175;DHT22;58876;51.994;4.472;2023-05-07T00:46:37;16.53;77.84
71175;DHT22;58876;51.994;4.472;2023-05-07T00:49:03;16.58;78.07
71175;DHT22;58876;51.994;4.472;2023-05-07T00:51:29;16.56;77.76
71175;DHT22;58876;51.994;4.472;2023-05-07T00:53:55;16.59;77.70
71175;DHT22;58876;51.994;4.472;2023-05-07T00:56:21;16.61;77.58
71175;DHT22;58876;51.994;4.472;2023-05-07T00:58:48;16.63;77.56
71175;DHT22;58876;51.994;4.472;2023-05-07T01:01:14;16.62;77.41
71175;DHT22;58876;51.994;4.472;2023-05-07T01:03:42;16.58;77.32
71175;DHT22;58876;51.994;4.472;2023-05-07T01:06:10;16.59;77.60
71175;DHT22;58876;51.994;4.472;2023-05-07T01:08:39;16.55;77.44
71175;DHT22;58876;51.994;4.472;2023-05-07T01:11:07;16.49;77.35
71175;DHT22;58876;51.994;4.472;2023-05-07T01:13:34;16.48;77.44
71175;DHT22;58876;51.994;4.472;2023-05-07T01:16:00;16.47;77.68
71175;DHT22;58876;51.994;4.472;2023-05-07T01:18:26;16.44;77.74
71175;DHT22;58876;51.994;4.472;2023-05-07T01:20:52;16.41;77.45
71175;DHT22;58876;51.994;4.472;2023-05-07T01:23:18;16.36;77.74
71175;DHT22;58876;51.994;4.472;2023-05-07T01:25:51;16.31;78.27
71175;DHT22;58876;51.994;4.472;2023-05-07T01:28:16;16.35;78.34
71175;DHT22;58876;51.994;4.472;2023-05-07T01:30:47;16.34;78.30
71175;DHT22;58876;51.994;4.472;2023-05-07T01:33:15;16.31;78.41
71175;DHT22;58876;51.994;4.472;2023-05-07T01:35:46;16.31;78.05
71175;DHT22;58876;51.994;4.472;2023-05-07T01:38:13;16.32;77.76
71175;DHT22;58876;51.994;4.472;2023-05-07T01:40:39;16.35;78.27
71175;DHT22;58876;51.994;4.472;2023-05-07T01:43:04;16.36;78.23
71175;DHT22;58876;51.994;4.472;2023-05-07T01:45:31;16.38;78.14
71175;DHT22;58876;51.994;4.472;2023-05-07T01:47:58;16.34;78.55
71175;DHT22;58876;51.994;4.472;2023-05-07T01:50:25;16.32;78.62
71175;DHT22;58876;51.994;4.472;2023-05-07T01:52:51;16.32;78.32
71175;DHT22;58876;51.994;4.472;2023-05-07T01:55:16;16.29;78.42
71175;DHT22;58876;51.994;4.472;2023-05-07T01:57:42;16.32;78.55
71175;DHT22;58876;51.994;4.472;2023-05-07T02:00:08;16.32;78.75
71175;DHT22;58876;51.994;4.472;2023-05-07T02:02:34;16.32;78.41
71175;DHT22;58876;51.994;4.472;2023-05-07T02:05:00;16.40;78.34
71175;DHT22;58876;51.994;4.472;2023-05-07T02:07:27;16.47;78.68
71175;DHT22;58876;51.994;4.472;2023-05-07T02:09:53;16.47;78.42
71175;DHT22;58876;51.994;4.472;2023-05-07T02:12:18;16.44;78.73
71175;DHT22;58876;51.994;4.472;2023-05-07T02:14:44;16.40;78.87
71175;DHT22;58876;51.994;4.472;2023-05-07T02:17:09;16.40;78.93
71175;DHT22;58876;51.994;4.472;2023-05-07T02:19:35;16.38;78.87
71175;DHT22;58876;51.994;4.472;2023-05-07T02:22:00;16.38;79.16
71175;DHT22;58876;51.994;4.472;2023-05-07T02:24:26;16.36;79.11
71175;DHT22;58876;51.994;4.472;2023-05-07T02:26:51;16.36;79.28
71175;DHT22;58876;51.994;4.472;2023-05-07T02:29:17;16.32;79.27
71175;DHT22;58876;51.994;4.472;2023-05-07T02:31:42;16.35;79.32
71175;DHT22;58876;51.994;4.472;2023-05-07T02:34:07;16.34;79.26
71175;DHT22;58876;51.994;4.472;2023-05-07T02:36:33;16.38;79.33
71175;DHT22;58876;51.994;4.472;2023-05-07T02:38:58;16.40;79.56
71175;DHT22;58876;51.994;4.472;2023-05-07T02:41:24;16.42;79.26
71175;DHT22;58876;51.994;4.472;2023-05-07T02:43:49;16.44;79.51
71175;DHT22;58876;51.994;4.472;2023-05-07T02:46:14;16.45;79.20
71175;DHT22;58876;51.994;4.472;2023-05-07T02:48:41;16.48;79.36
71175;DHT22;58876;51.994;4.472;2023-05-07T02:51:06;16.48;79.26
71175;DHT22;58876;51.994;4.472;2023-05-07T02:53:32;16.52;79.31
71175;DHT22;58876;51.994;4.472;2023-05-07T02:55:59;16.53;79.14
71175;DHT22;58876;51.994;4.472;2023-05-07T02:58:25;16.56;79.06
71175;DHT22;58876;51.994;4.472;2023-05-07T03:00:52;16.58;78.98
71175;DHT22;58876;51.994;4.472;2023-05-07T03:03:18;16.58;79.21
71175;DHT22;58876;51.994;4.472;2023-05-07T03:05:43;16.55;79.28
71175;DHT22;58876;51.994;4.472;2023-05-07T03:08:09;16.55;79.49
71175;DHT22;58876;51.994;4.472;2023-05-07T03:10:36;16.56;79.74
71175;DHT22;58876;51.994;4.472;2023-05-07T03:13:01;16.55;79.60
71175;DHT22;58876;51.994;4.472;2023-05-07T03:15:27;16.55;79.47
71175;DHT22;58876;51.994;4.472;2023-05-07T03:17:52;16.56;79.15
71175;DHT22;58876;51.994;4.472;2023-05-07T03:20:18;16.59;79.31
71175;DHT22;58876;51.994;4.472;2023-05-07T03:22:43;16.58;79.08
71175;DHT22;58876;51.994;4.472;2023-05-07T03:25:10;16.61;79.08
71175;DHT22;58876;51.994;4.472;2023-05-07T03:27:35;16.66;79.11
71175;DHT22;58876;51.994;4.472;2023-05-07T03:30:01;16.72;79.28
71175;DHT22;58876;51.994;4.472;2023-05-07T03:32:26;16.69;79.32
71175;DHT22;58876;51.994;4.472;2023-05-07T03:34:52;16.69;79.01
71175;DHT22;58876;51.994;4.472;2023-05-07T03:37:18;16.68;78.99
71175;DHT22;58876;51.994;4.472;2023-05-07T03:39:43;16.65;79.03
71175;DHT22;58876;51.994;4.472;2023-05-07T03:42:09;16.66;79.17
71175;DHT22;58876;51.994;4.472;2023-05-07T03:44:34;16.63;79.07
71175;DHT22;58876;51.994;4.472;2023-05-07T03:47:02;16.61;78.95
71175;DHT22;58876;51.994;4.472;2023-05-07T03:49:27;16.56;79.15
71175;DHT22;58876;51.994;4.472;2023-05-07T03:51:53;16.56;79.31
71175;DHT22;58876;51.994;4.472;2023-05-07T03:54:18;16.55;79.37
71175;DHT22;58876;51.994;4.472;2023-05-07T03:56:44;16.52;79.29
71175;DHT22;58876;51.994;4.472;2023-05-07T03:59:09;16.53;79.41
71175;DHT22;58876;51.994;4.472;2023-05-07T04:01:35;16.52;79.27
71175;DHT22;58876;51.994;4.472;2023-05-07T04:04:00;16.51;79.49
71175;DHT22;58876;51.994;4.472;2023-05-07T04:06:26;16.52;79.45
71175;DHT22;58876;51.994;4.472;2023-05-07T04:08:52;16.55;79.41
71175;DHT22;58876;51.994;4.472;2023-05-07T04:11:18;16.51;79.55
71175;DHT22;58876;51.994;4.472;2023-05-07T04:13:43;16.49;79.42
71175;DHT22;58876;51.994;4.472;2023-05-07T04:16:09;16.49;79.17
71175;DHT22;58876;51.994;4.472;2023-05-07T04:18:34;16.52;79.17
71175;DHT22;58876;51.994;4.472;2023-05-07T04:21:00;16.53;79.33
71175;DHT22;58876;51.994;4.472;2023-05-07T04:23:25;16.56;79.18
71175;DHT22;58876;51.994;4.472;2023-05-07T04:25:50;16.56;78.99
71175;DHT22;58876;51.994;4.472;2023-05-07T04:28:16;16.61;79.16
71175;DHT22;58876;51.994;4.472;2023-05-07T04:30:41;16.65;78.94
71175;DHT22;58876;51.994;4.472;2023-05-07T04:33:07;16.68;78.80
71175;DHT22;58876;51.994;4.472;2023-05-07T04:35:32;16.69;78.85
71175;DHT22;58876;51.994;4.472;2023-05-07T04:37:58;16.69;78.77
71175;DHT22;58876;51.994;4.472;2023-05-07T04:40:23;16.71;78.60
71175;DHT22;58876;51.994;4.472;2023-05-07T04:42:49;16.69;78.73
71175;DHT22;58876;51.994;4.472;2023-05-07T04:45:14;16.71;78.63
71175;DHT22;58876;51.994;4.472;2023-05-07T04:47:40;16.73;78.58
71175;DHT22;58876;51.994;4.472;2023-05-07T04:50:09;16.73;78.31
71175;DHT22;58876;51.994;4.472;2023-05-07T04:52:34;16.69;78.36
71175;DHT22;58876;51.994;4.472;2023-05-07T04:55:00;16.69;78.66
71175;DHT22;58876;51.994;4.472;2023-05-07T04:57:26;16.73;78.81
71175;DHT22;58876;51.994;4.472;2023-05-07T04:59:53;16.76;78.30
71175;DHT22;58876;51.994;4.472;2023-05-07T05:02:18;16.79;77.93
71175;DHT22;58876;51.994;4.472;2023-05-07T05:04:44;16.84;78.22
71175;DHT22;58876;51.994;4.472;2023-05-07T05:07:09;16.86;78.28
71175;DHT22;58876;51.994;4.472;2023-05-07T05:09:34;16.90;78.24
71175;DHT22;58876;51.994;4.472;2023-05-07T05:12:00;16.93;78.07
71175;DHT22;58876;51.994;4.472;2023-05-07T05:14:25;16.99;77.75
71175;DHT22;58876;51.994;4.472;2023-05-07T05:16:51;17.03;77.67
71175;DHT22;58876;51.994;4.472;2023-05-07T05:19:16;17.11;77.70
71175;DHT22;58876;51.994;4.472;2023-05-07T05:21:42;17.19;77.36
71175;DHT22;58876;51.994;4.472;2023-05-07T05:24:07;17.24;77.34
71175;DHT22;58876;51.994;4.472;2023-05-07T05:26:33;17.31;77.20
71175;DHT22;58876;51.994;4.472;2023-05-07T05:28:59;17.34;76.87
71175;DHT22;58876;51.994;4.472;2023-05-07T05:31:24;17.35;77.07
71175;DHT22;58876;51.994;4.472;2023-05-07T05:33:50;17.34;77.43
71175;DHT22;58876;51.994;4.472;2023-05-07T05:36:15;17.37;77.63
71175;DHT22;58876;51.994;4.472;2023-05-07T05:38:41;17.31;77.88
71175;DHT22;58876;51.994;4.472;2023-05-07T05:41:07;17.35;77.41
71175;DHT22;58876;51.994;4.472;2023-05-07T05:43:32;17.40;77.57
71175;DHT22;58876;51.994;4.472;2023-05-07T05:45:57;17.47;77.63
71175;DHT22;58876;51.994;4.472;2023-05-07T05:48:23;17.50;77.56
71175;DHT22;58876;51.994;4.472;2023-05-07T05:50:49;17.55;77.59
71175;DHT22;58876;51.994;4.472;2023-05-07T05:53:14;17.52;77.55
71175;DHT22;58876;51.994;4.472;2023-05-07T05:55:41;17.45;77.42
71175;DHT22;58876;51.994;4.472;2023-05-07T05:58:06;17.42;77.85
71175;DHT22;58876;51.994;4.472;2023-05-07T06:00:32;17.42;78.18
71175;DHT22;58876;51.994;4.472;2023-05-07T06:02:58;17.41;78.38
71175;DHT22;58876;51.994;4.472;2023-05-07T06:05:23;17.41;78.49
71175;DHT22;58876;51.994;4.472;2023-05-07T06:07:49;17.40;78.54
71175;DHT22;58876;51.994;4.472;2023-05-07T06:10:14;17.44;78.34
71175;DHT22;58876;51.994;4.472;2023-05-07T06:12:40;17.42;78.28
71175;DHT22;58876;51.994;4.472;2023-05-07T06:15:06;17.48;78.59
71175;DHT22;58876;51.994;4.472;2023-05-07T06:17:31;17.44;78.58
71175;DHT22;58876;51.994;4.472;2023-05-07T06:19:57;17.47;78.33
71175;DHT22;58876;51.994;4.472;2023-05-07T06:22:22;17.51;78.48
71175;DHT22;58876;51.994;4.472;2023-05-07T06:24:48;17.55;78.44
71175;DHT22;58876;51.994;4.472;2023-05-07T06:27:13;17.67;78.19
71175;DHT22;58876;51.994;4.472;2023-05-07T06:29:38;17.67;77.66
71175;DHT22;58876;51.994;4.472;2023-05-07T06:32:12;17.81;77.63
71175;DHT22;58876;51.994;4.472;2023-05-07T06:34:39;17.98;77.14
71175;DHT22;58876;51.994;4.472;2023-05-07T06:37:05;18.14;76.55
71175;DHT22;58876;51.994;4.472;2023-05-07T06:39:31;18.29;76.36
71175;DHT22;58876;51.994;4.472;2023-05-07T06:41:56;18.32;76.12
71175;DHT22;58876;51.994;4.472;2023-05-07T06:44:22;18.37;76.22
71175;DHT22;58876;51.994;4.472;2023-05-07T06:46:47;18.32;75.82
71175;DHT22;58876;51.994;4.472;2023-05-07T06:49:13;18.14;76.15
71175;DHT22;58876;51.994;4.472;2023-05-07T06:51:39;18.13;76.24
71175;DHT22;58876;51.994;4.472;2023-05-07T06:54:04;18.19;76.34
71175;DHT22;58876;51.994;4.472;2023-05-07T06:56:31;18.17;76.43
71175;DHT22;58876;51.994;4.472;2023-05-07T06:58:56;18.28;76.07
71175;DHT22;58876;51.994;4.472;2023-05-07T07:01:21;18.28;76.40
71175;DHT22;58876;51.994;4.472;2023-05-07T07:03:48;18.30;76.05
71175;DHT22;58876;51.994;4.472;2023-05-07T07:06:14;18.30;75.79
71175;DHT22;58876;51.994;4.472;2023-05-07T07:08:39;18.40;75.77
71175;DHT22;58876;51.994;4.472;2023-05-07T07:11:06;18.47;75.25
71175;DHT22;58876;51.994;4.472;2023-05-07T07:13:31;18.84;75.44
71175;DHT22;58876;51.994;4.472;2023-05-07T07:15:57;19.32;74.77
71175;DHT22;58876;51.994;4.472;2023-05-07T07:18:23;19.71;74.56
71175;DHT22;58876;51.994;4.472;2023-05-07T07:20:48;19.88;72.47
71175;DHT22;58876;51.994;4.472;2023-05-07T07:23:14;20.03;72.02
71175;DHT22;58876;51.994;4.472;2023-05-07T07:25:39;20.06;72.01
71175;DHT22;58876;51.994;4.472;2023-05-07T07:28:06;19.94;71.18
71175;DHT22;58876;51.994;4.472;2023-05-07T07:30:31;20.03;71.29
71175;DHT22;58876;51.994;4.472;2023-05-07T07:32:57;20.06;71.38
71175;DHT22;58876;51.994;4.472;2023-05-07T07:35:28;20.24;72.20
71175;DHT22;58876;51.994;4.472;2023-05-07T07:37:54;20.47;70.77
71175;DHT22;58876;51.994;4.472;2023-05-07T07:40:19;20.48;70.58
71175;DHT22;58876;51.994;4.472;2023-05-07T07:42:45;20.69;70.75
71175;DHT22;58876;51.994;4.472;2023-05-07T07:45:10;20.58;69.77
71175;DHT22;58876;51.994;4.472;2023-05-07T07:47:36;20.34;70.71
71175;DHT22;58876;51.994;4.472;2023-05-07T07:50:02;20.37;71.84
71175;DHT22;58876;51.994;4.472;2023-05-07T07:52:27;20.71;71.38
71175;DHT22;58876;51.994;4.472;2023-05-07T07:54:52;20.79;71.13
71175;DHT22;58876;51.994;4.472;2023-05-07T07:57:18;20.86;69.42
71175;DHT22;58876;51.994;4.472;2023-05-07T07:59:43;20.66;69.70
71175;DHT22;58876;51.994;4.472;2023-05-07T08:02:09;20.73;70.14
71175;DHT22;58876;51.994;4.472;2023-05-07T08:04:34;20.73;68.38
71175;DHT22;58876;51.994;4.472;2023-05-07T08:07:00;20.89;69.90
71175;DHT22;58876;51.994;4.472;2023-05-07T08:09:26;20.93;68.08
71175;DHT22;58876;51.994;4.472;2023-05-07T08:11:51;20.97;68.64
71175;DHT22;58876;51.994;4.472;2023-05-07T08:14:17;21.08;67.46
71175;DHT22;58876;51.994;4.472;2023-05-07T08:16:42;20.89;68.21
71175;DHT22;58876;51.994;4.472;2023-05-07T08:19:08;21.03;68.85
71175;DHT22;58876;51.994;4.472;2023-05-07T08:21:34;21.19;68.79
71175;DHT22;58876;51.994;4.472;2023-05-07T08:23:59;21.33;68.14
71175;DHT22;58876;51.994;4.472;2023-05-07T08:26:25;21.40;67.96
71175;DHT22;58876;51.994;4.472;2023-05-07T08:28:50;21.41;67.60
71175;DHT22;58876;51.994;4.472;2023-05-07T08:31:16;21.51;68.38
71175;DHT22;58876;51.994;4.472;2023-05-07T08:33:41;21.50;68.99
71175;DHT22;58876;51.994;4.472;2023-05-07T08:36:07;21.48;68.17
71175;DHT22;58876;51.994;4.472;2023-05-07T08:38:32;21.84;68.06
71175;DHT22;58876;51.994;4.472;2023-05-07T08:40:58;21.91;67.87
71175;DHT22;58876;51.994;4.472;2023-05-07T08:43:26;21.82;67.59
71175;DHT22;58876;51.994;4.472;2023-05-07T08:45:53;22.13;67.57
71175;DHT22;58876;51.994;4.472;2023-05-07T08:48:22;22.56;65.77
71175;DHT22;58876;51.994;4.472;2023-05-07T08:50:50;23.04;65.43
71175;DHT22;58876;51.994;4.472;2023-05-07T08:53:16;23.28;62.22
71175;DHT22;58876;51.994;4.472;2023-05-07T08:55:42;23.83;61.27
71175;DHT22;58876;51.994;4.472;2023-05-07T08:58:08;24.42;60.07
71175;DHT22;58876;51.994;4.472;2023-05-07T09:00:36;24.49;58.13
71175;DHT22;58876;51.994;4.472;2023-05-07T09:03:01;24.40;59.95
71175;DHT22;58876;51.994;4.472;2023-05-07T09:05:27;24.45;59.22
71175;DHT22;58876;51.994;4.472;2023-05-07T09:07:52;25.00;56.78
71175;DHT22;58876;51.994;4.472;2023-05-07T09:10:18;25.09;58.36
71175;DHT22;58876;51.994;4.472;2023-05-07T09:12:46;25.23;57.65
71175;DHT22;58876;51.994;4.472;2023-05-07T09:15:12;24.85;58.60
71175;DHT22;58876;51.994;4.472;2023-05-07T09:17:37;24.52;58.42
71175;DHT22;58876;51.994;4.472;2023-05-07T09:20:04;24.35;60.13
71175;DHT22;58876;51.994;4.472;2023-05-07T09:22:36;23.93;59.73
71175;DHT22;58876;51.994;4.472;2023-05-07T09:25:01;23.63;61.05
71175;DHT22;58876;51.994;4.472;2023-05-07T09:27:27;23.43;62.30
71175;DHT22;58876;51.994;4.472;2023-05-07T09:29:52;23.59;61.54
71175;DHT22;58876;51.994;4.472;2023-05-07T09:32:18;23.42;62.06
71175;DHT22;58876;51.994;4.472;2023-05-07T09:34:44;23.08;63.99
71175;DHT22;58876;51.994;4.472;2023-05-07T09:37:13;23.15;62.54
71175;DHT22;58876;51.994;4.472;2023-05-07T09:39:47;22.75;62.30
71175;DHT22;58876;51.994;4.472;2023-05-07T09:42:13;22.87;63.75
71175;DHT22;58876;51.994;4.472;2023-05-07T09:44:43;22.94;63.29
71175;DHT22;58876;51.994;4.472;2023-05-07T09:47:11;22.88;62.10
71175;DHT22;58876;51.994;4.472;2023-05-07T09:49:40;22.88;62.12
71175;DHT22;58876;51.994;4.472;2023-05-07T09:52:07;23.31;60.34
71175;DHT22;58876;51.994;4.472;2023-05-07T09:54:36;23.19;62.06
71175;DHT22;58876;51.994;4.472;2023-05-07T09:57:04;23.29;60.30
71175;DHT22;58876;51.994;4.472;2023-05-07T09:59:32;23.46;61.03
71175;DHT22;58876;51.994;4.472;2023-05-07T10:01:59;23.31;59.37
71175;DHT22;58876;51.994;4.472;2023-05-07T10:04:29;23.14;62.49
71175;DHT22;58876;51.994;4.472;2023-05-07T10:06:56;23.58;60.67
71175;DHT22;58876;51.994;4.472;2023-05-07T10:09:22;23.76;60.30
71175;DHT22;58876;51.994;4.472;2023-05-07T10:11:51;23.86;59.01
71175;DHT22;58876;51.994;4.472;2023-05-07T10:14:17;23.67;60.19
71175;DHT22;58876;51.994;4.472;2023-05-07T10:16:43;24.22;57.02
71175;DHT22;58876;51.994;4.472;2023-05-07T10:19:09;24.64;56.80
71175;DHT22;58876;51.994;4.472;2023-05-07T10:21:42;24.88;54.82
71175;DHT22;58876;51.994;4.472;2023-05-07T10:24:17;25.09;56.76
71175;DHT22;58876;51.994;4.472;2023-05-07T10:26:48;25.34;56.23
71175;DHT22;58876;51.994;4.472;2023-05-07T10:32:20;25.53;56.18
71175;DHT22;58876;51.994;4.472;2023-05-07T10:34:54;25.09;56.46
71175;DHT22;58876;51.994;4.472;2023-05-07T10:37:22;24.88;53.27
71175;DHT22;58876;51.994;4.472;2023-05-07T10:39:48;24.52;56.18
71175;DHT22;58876;51.994;4.472;2023-05-07T10:42:14;24.69;55.79
71175;DHT22;58876;51.994;4.472;2023-05-07T10:44:40;24.67;58.59
71175;DHT22;58876;51.994;4.472;2023-05-07T10:47:16;24.61;54.44
71175;DHT22;58876;51.994;4.472;2023-05-07T10:54:42;23.83;56.97
71175;DHT22;58876;51.994;4.472;2023-05-07T10:57:36;24.04;56.15
71175;DHT22;58876;51.994;4.472;2023-05-07T11:00:03;24.06;57.58
71175;DHT22;58876;51.994;4.472;2023-05-07T11:05:26;24.48;56.22
71175;DHT22;58876;51.994;4.472;2023-05-07T11:07:59;24.40;56.84
71175;DHT22;58876;51.994;4.472;2023-05-07T11:10:51;24.34;54.42
71175;DHT22;58876;51.994;4.472;2023-05-07T11:13:18;24.11;55.26
71175;DHT22;58876;51.994;4.472;2023-05-07T11:15:48;23.97;56.20
71175;DHT22;58876;51.994;4.472;2023-05-07T11:18:15;23.84;58.13
71175;DHT22;58876;51.994;4.472;2023-05-07T11:21:01;23.94;57.12
71175;DHT22;58876;51.994;4.472;2023-05-07T11:26:08;24.14;54.18
71175;DHT22;58876;51.994;4.472;2023-05-07T11:28:40;24.45;57.07
71175;DHT22;58876;51.994;4.472;2023-05-07T11:31:06;24.93;53.14
71175;DHT22;58876;51.994;4.472;2023-05-07T11:33:32;25.17;56.74
71175;DHT22;58876;51.994;4.472;2023-05-07T11:35:59;25.08;53.81
71175;DHT22;58876;51.994;4.472;2023-05-07T11:38:25;25.16;54.75
71175;DHT22;58876;51.994;4.472;2023-05-07T11:40:59;25.17;52.72
71175;DHT22;58876;51.994;4.472;2023-05-07T11:43:33;24.85;56.09
71175;DHT22;58876;51.994;4.472;2023-05-07T11:46:11;24.58;56.64
71175;DHT22;58876;51.994;4.472;2023-05-07T11:48:37;24.40;58.30
71175;DHT22;58876;51.994;4.472;2023-05-07T11:51:05;24.58;57.71
71175;DHT22;58876;51.994;4.472;2023-05-07T11:53:39;24.61;56.07
71175;DHT22;58876;51.994;4.472;2023-05-07T11:56:17;24.65;55.13
71175;DHT22;58876;51.994;4.472;2023-05-07T11:58:44;24.51;56.17
71175;DHT22;58876;51.994;4.472;2023-05-07T12:01:12;24.48;56.95
71175;DHT22;58876;51.994;4.472;2023-05-07T12:03:40;24.32;57.80
71175;DHT22;58876;51.994;4.472;2023-05-07T12:06:10;23.80;55.54
71175;DHT22;58876;51.994;4.472;2023-05-07T12:08:41;23.66;57.84
71175;DHT22;58876;51.994;4.472;2023-05-07T12:11:13;22.97;58.89
71175;DHT22;58876;51.994;4.472;2023-05-07T12:13:39;22.87;59.95
71175;DHT22;58876;51.994;4.472;2023-05-07T12:16:06;22.37;61.88
71175;DHT22;58876;51.994;4.472;2023-05-07T12:18:33;22.42;62.89
71175;DHT22;58876;51.994;4.472;2023-05-07T12:20:59;22.26;61.21
71175;DHT22;58876;51.994;4.472;2023-05-07T12:23:25;22.35;62.12
71175;DHT22;58876;51.994;4.472;2023-05-07T12:25:51;22.10;62.96
71175;DHT22;58876;51.994;4.472;2023-05-07T12:28:17;21.47;64.70
71175;DHT22;58876;51.994;4.472;2023-05-07T12:30:46;21.04;69.01
71175;DHT22;58876;51.994;4.472;2023-05-07T12:33:16;20.61;69.11
71175;DHT22;58876;51.994;4.472;2023-05-07T12:35:43;20.34;69.06
71175;DHT22;58876;51.994;4.472;2023-05-07T12:38:13;20.07;70.87
71175;DHT22;58876;51.994;4.472;2023-05-07T12:40:41;20.11;70.57
71175;DHT22;58876;51.994;4.472;2023-05-07T12:43:18;20.28;71.32
71175;DHT22;58876;51.994;4.472;2023-05-07T12:45:44;20.24;69.94
71175;DHT22;58876;51.994;4.472;2023-05-07T12:48:12;20.21;70.29
71175;DHT22;58876;51.994;4.472;2023-05-07T12:50:38;20.24;69.91
71175;DHT22;58876;51.994;4.472;2023-05-07T12:53:04;20.24;70.02
71175;DHT22;58876;51.994;4.472;2023-05-07T12:55:44;20.20;69.59
71175;DHT22;58876;51.994;4.472;2023-05-07T12:58:22;20.13;70.39
71175;DHT22;58876;51.994;4.472;2023-05-07T13:00:49;20.24;70.39
71175;DHT22;58876;51.994;4.472;2023-05-07T13:03:47;20.29;70.78
71175;DHT22;58876;51.994;4.472;2023-05-07T13:06:09;19.91;71.28
71175;DHT22;58876;51.994;4.472;2023-05-07T13:08:40;19.98;71.97
71175;DHT22;58876;51.994;4.472;2023-05-07T13:11:12;20.24;71.62
71175;DHT22;58876;51.994;4.472;2023-05-07T13:13:39;20.34;71.37
71175;DHT22;58876;51.994;4.472;2023-05-07T13:16:07;20.04;72.28
71175;DHT22;58876;51.994;4.472;2023-05-07T13:18:33;20.11;72.20
71175;DHT22;58876;51.994;4.472;2023-05-07T13:21:00;20.34;71.94
71175;DHT22;58876;51.994;4.472;2023-05-07T13:23:27;20.51;71.27
71175;DHT22;58876;51.994;4.472;2023-05-07T13:25:53;20.65;71.18
71175;DHT22;58876;51.994;4.472;2023-05-07T13:28:23;20.65;71.20
71175;DHT22;58876;51.994;4.472;2023-05-07T13:30:48;20.55;71.08
71175;DHT22;58876;51.994;4.472;2023-05-07T13:33:14;20.37;70.88
71175;DHT22;58876;51.994;4.472;2023-05-07T13:35:41;20.22;71.13
71175;DHT22;58876;51.994;4.472;2023-05-07T13:38:07;20.08;71.80
71175;DHT22;58876;51.994;4.472;2023-05-07T13:40:32;19.94;71.78
71175;DHT22;58876;51.994;4.472;2023-05-07T13:42:59;19.98;72.53
71175;DHT22;58876;51.994;4.472;2023-05-07T13:45:28;20.07;71.86
71175;DHT22;58876;51.994;4.472;2023-05-07T13:47:55;20.21;71.60
71175;DHT22;58876;51.994;4.472;2023-05-07T13:50:21;20.31;71.04
71175;DHT22;58876;51.994;4.472;2023-05-07T13:52:46;20.41;71.26
71175;DHT22;58876;51.994;4.472;2023-05-07T13:55:23;20.61;70.78
71175;DHT22;58876;51.994;4.472;2023-05-07T13:57:55;20.85;70.08
71175;DHT22;58876;51.994;4.472;2023-05-07T14:00:21;20.77;70.26
71175;DHT22;58876;51.994;4.472;2023-05-07T14:02:47;21.03;70.40
71175;DHT22;58876;51.994;4.472;2023-05-07T14:05:12;21.33;69.16
71175;DHT22;58876;51.994;4.472;2023-05-07T14:07:38;21.31;67.70
71175;DHT22;58876;51.994;4.472;2023-05-07T14:10:04;21.31;67.57
71175;DHT22;58876;51.994;4.472;2023-05-07T14:12:32;21.45;67.76
71175;DHT22;58876;51.994;4.472;2023-05-07T14:14:57;21.66;67.63
71175;DHT22;58876;51.994;4.472;2023-05-07T14:17:23;21.75;67.10
71175;DHT22;58876;51.994;4.472;2023-05-07T14:19:50;21.91;67.92
71175;DHT22;58876;51.994;4.472;2023-05-07T14:22:15;22.09;67.46
71175;DHT22;58876;51.994;4.472;2023-05-07T14:24:41;22.25;67.33
71175;DHT22;58876;51.994;4.472;2023-05-07T14:27:06;22.36;66.40
71175;DHT22;58876;51.994;4.472;2023-05-07T14:29:32;22.29;66.20
71175;DHT22;58876;51.994;4.472;2023-05-07T14:31:58;22.15;66.28
71175;DHT22;58876;51.994;4.472;2023-05-07T14:34:23;22.03;67.20
71175;DHT22;58876;51.994;4.472;2023-05-07T14:36:49;22.02;66.78
71175;DHT22;58876;51.994;4.472;2023-05-07T14:39:14;22.08;67.58
71175;DHT22;58876;51.994;4.472;2023-05-07T14:41:39;21.98;67.27
71175;DHT22;58876;51.994;4.472;2023-05-07T14:44:05;21.88;67.12
71175;DHT22;58876;51.994;4.472;2023-05-07T14:46:30;21.82;67.62
71175;DHT22;58876;51.994;4.472;2023-05-07T14:48:57;21.69;68.20
71175;DHT22;58876;51.994;4.472;2023-05-07T14:51:23;21.51;69.23
71175;DHT22;58876;51.994;4.472;2023-05-07T14:53:50;21.31;70.80
71175;DHT22;58876;51.994;4.472;2023-05-07T14:56:15;20.97;73.63
71175;DHT22;58876;51.994;4.472;2023-05-07T14:58:42;20.73;74.04
71175;DHT22;58876;51.994;4.472;2023-05-07T15:01:08;20.42;75.13
71175;DHT22;58876;51.994;4.472;2023-05-07T15:03:34;20.16;76.88
71175;DHT22;58876;51.994;4.472;2023-05-07T15:05:59;20.00;78.08
71175;DHT22;58876;51.994;4.472;2023-05-07T15:08:25;19.83;79.13
71175;DHT22;58876;51.994;4.472;2023-05-07T15:10:51;19.66;80.09
71175;DHT22;58876;51.994;4.472;2023-05-07T15:13:16;19.59;80.28
71175;DHT22;58876;51.994;4.472;2023-05-07T15:15:42;19.48;80.35
71175;DHT22;58876;51.994;4.472;2023-05-07T15:18:09;19.39;79.91
71175;DHT22;58876;51.994;4.472;2023-05-07T15:20:36;19.22;79.93
71175;DHT22;58876;51.994;4.472;2023-05-07T15:23:01;18.97;79.92
71175;DHT22;58876;51.994;4.472;2023-05-07T15:25:27;18.75;80.39
71175;DHT22;58876;51.994;4.472;2023-05-07T15:27:53;18.68;81.28
71175;DHT22;58876;51.994;4.472;2023-05-07T15:30:18;18.65;81.69
71175;DHT22;58876;51.994;4.472;2023-05-07T15:32:48;18.71;81.82
71175;DHT22;58876;51.994;4.472;2023-05-07T15:35:13;18.84;81.91
71175;DHT22;58876;51.994;4.472;2023-05-07T15:37:39;18.85;82.09
71175;DHT22;58876;51.994;4.472;2023-05-07T15:40:05;18.75;81.46